sensor_id;sensor_type;location;lat;lon;timestamp;temperature;humidity
64939;DHT22;51453;47.738;7.420;2023-12-20T00:01:47;4.60;99.90
64939;DHT22;51453;47.738;7.420;2023-12-20T00:04:13;4.60;99.90
64939;DHT22;51453;47.738;7.420;2023-12-20T00:06:38;4.70;99.90
64939;DHT22;51453;47.738;7.420;2023-12-20T00:09:04;4.80;99.90
64939;DHT22;51453;47.738;7.420;2023-12-20T00:11:29;4.70;99.90
64939;DHT22;51453;47.738;7.420;2023-12-20T00:13:55;4.80;99.90
64939;DHT22;51453;47.738;7.420;2023-12-20T00:16:21;4.70;99.90
64939;DHT22;51453;47.738;7.420;2023-12-20T00:18:46;4.80;99.90
64939;DHT22;51453;47.738;7.420;2023-12-20T00:21:12;4.70;99.90
64939;DHT22;51453;47.738;7.420;2023-12-20T00:23:37;4.80;99.90
64939;DHT22;51453;47.738;7.420;2023-12-20T00:26:03;4.80;99.90
64939;DHT22;51453;47.738;7.420;2023-12-20T00:28:29;4.80;99.90
64939;DHT22;51453;47.738;7.420;2023-12-20T00:30:55;4.80;99.90
64939;DHT22;51453;47.738;7.420;2023-12-20T00:33:20;4.90;99.90
64939;DHT22;51453;47.738;7.420;2023-12-20T00:35:46;4.80;99.90
64939;DHT22;51453;47.738;7.420;2023-12-20T00:38:11;4.80;99.90
64939;DHT22;51453;47.738;7.420;2023-12-20T00:40:37;4.80;99.90
64939;DHT22;51453;47.738;7.420;2023-12-20T00:43:03;4.80;99.90
64939;DHT22;51453;47.738;7.420;2023-12-20T00:45:29;4.60;99.90
64939;DHT22;51453;47.738;7.420;2023-12-20T00:47:54;4.50;99.90
64939;DHT22;51453;47.738;7.420;2023-12-20T00:50:20;4.40;99.90
64939;DHT22;51453;47.738;7.420;2023-12-20T00:52:47;4.40;99.90
64939;DHT22;51453;47.738;7.420;2023-12-20T00:55:13;4.40;99.90
64939;DHT22;51453;47.738;7.420;2023-12-20T00:57:39;4.40;99.90
64939;DHT22;51453;47.738;7.420;2023-12-20T01:00:05;4.40;99.90
64939;DHT22;51453;47.738;7.420;2023-12-20T01:02:31;4.40;99.90
64939;DHT22;51453;47.738;7.420;2023-12-20T01:04:56;4.30;99.90
64939;DHT22;51453;47.738;7.420;2023-12-20T01:07:22;4.30;99.90
64939;DHT22;51453;47.738;7.420;2023-12-20T01:09:48;4.30;99.90
64939;DHT22;51453;47.738;7.420;2023-12-20T01:12:13;4.30;99.90
64939;DHT22;51453;47.738;7.420;2023-12-20T01:14:39;4.40;99.90
64939;DHT22;51453;47.738;7.420;2023-12-20T01:17:05;4.40;99.90
64939;DHT22;51453;47.738;7.420;2023-12-20T01:19:31;4.50;99.90
64939;DHT22;51453;47.738;7.420;2023-12-20T01:21:56;4.50;99.90
64939;DHT22;51453;47.738;7.420;2023-12-20T01:24:22;4.60;99.90
64939;DHT22;51453;47.738;7.420;2023-12-20T01:26:47;4.70;99.90
64939;DHT22;51453;47.738;7.420;2023-12-20T01:29:13;4.80;99.90
64939;DHT22;51453;47.738;7.420;2023-12-20T01:31:40;4.80;99.90
64939;DHT22;51453;47.738;7.420;2023-12-20T01:34:06;4.70;99.90
64939;DHT22;51453;47.738;7.420;2023-12-20T01:36:31;4.50;99.90
64939;DHT22;51453;47.738;7.420;2023-12-20T01:38:57;4.50;99.90
64939;DHT22;51453;47.738;7.420;2023-12-20T01:41:23;4.50;99.90
64939;DHT22;51453;47.738;7.420;2023-12-20T01:43:48;4.60;99.90
64939;DHT22;51453;47.738;7.420;2023-12-20T01:46:14;4.60;99.90
64939;DHT22;51453;47.738;7.420;2023-12-20T01:48:40;4.60;99.90
64939;DHT22;51453;47.738;7.420;2023-12-20T01:51:06;4.60;99.90
64939;DHT22;51453;47.738;7.420;2023-12-20T01:53:32;4.60;99.90
64939;DHT22;51453;47.738;7.420;2023-12-20T01:55:58;4.60;99.90
64939;DHT22;51453;47.738;7.420;2023-12-20T01:58:25;4.70;99.90
64939;DHT22;51453;47.738;7.420;2023-12-20T02:00:51;4.70;99.90
64939;DHT22;51453;47.738;7.420;2023-12-20T02:03:17;4.70;99.90
64939;DHT22;51453;47.738;7.420;2023-12-20T02:05:44;4.80;99.90
64939;DHT22;51453;47.738;7.420;2023-12-20T02:08:11;4.90;99.90
64939;DHT22;51453;47.738;7.420;2023-12-20T02:10:37;5.00;99.90
64939;DHT22;51453;47.738;7.420;2023-12-20T02:13:03;5.00;99.90
64939;DHT22;51453;47.738;7.420;2023-12-20T02:15:29;5.00;99.90
64939;DHT22;51453;47.738;7.420;2023-12-20T02:17:55;5.10;99.90
64939;DHT22;51453;47.738;7.420;2023-12-20T02:20:21;5.10;99.90
64939;DHT22;51453;47.738;7.420;2023-12-20T02:22:47;5.20;99.90
64939;DHT22;51453;47.738;7.420;2023-12-20T02:25:12;5.20;99.90
64939;DHT22;51453;47.738;7.420;2023-12-20T02:27:39;5.30;99.90
64939;DHT22;51453;47.738;7.420;2023-12-20T02:30:06;5.30;99.90
64939;DHT22;51453;47.738;7.420;2023-12-20T02:32:32;5.40;99.90
64939;DHT22;51453;47.738;7.420;2023-12-20T02:34:58;5.40;99.90
64939;DHT22;51453;47.738;7.420;2023-12-20T02:37:23;5.40;99.90
64939;DHT22;51453;47.738;7.420;2023-12-20T02:39:49;5.50;99.90
64939;DHT22;51453;47.738;7.420;2023-12-20T02:42:15;5.40;99.90
64939;DHT22;51453;47.738;7.420;2023-12-20T02:44:41;5.50;99.90
64939;DHT22;51453;47.738;7.420;2023-12-20T02:47:06;5.60;99.90
64939;DHT22;51453;47.738;7.420;2023-12-20T02:49:32;5.60;99.90
64939;DHT22;51453;47.738;7.420;2023-12-20T02:51:57;5.60;99.90
64939;DHT22;51453;47.738;7.420;2023-12-20T02:54:23;5.60;99.90
64939;DHT22;51453;47.738;7.420;2023-12-20T02:56:49;5.60;99.90
64939;DHT22;51453;47.738;7.420;2023-12-20T02:59:15;5.60;99.90
64939;DHT22;51453;47.738;7.420;2023-12-20T03:01:45;5.60;99.90
64939;DHT22;51453;47.738;7.420;2023-12-20T03:04:14;5.60;99.90
64939;DHT22;51453;47.738;7.420;2023-12-20T03:06:39;5.70;99.90
64939;DHT22;51453;47.738;7.420;2023-12-20T03:09:05;5.70;99.90
64939;DHT22;51453;47.738;7.420;2023-12-20T03:11:31;5.70;99.90
64939;DHT22;51453;47.738;7.420;2023-12-20T03:13:57;5.70;99.90
64939;DHT22;51453;47.738;7.420;2023-12-20T03:16:23;5.70;99.90
64939;DHT22;51453;47.738;7.420;2023-12-20T03:18:49;5.70;99.90
64939;DHT22;51453;47.738;7.420;2023-12-20T03:21:14;5.70;99.90
64939;DHT22;51453;47.738;7.420;2023-12-20T03:23:40;5.60;99.90
64939;DHT22;51453;47.738;7.420;2023-12-20T03:26:09;5.70;99.90
64939;DHT22;51453;47.738;7.420;2023-12-20T03:28:36;5.70;99.90
64939;DHT22;51453;47.738;7.420;2023-12-20T03:31:02;5.70;99.90
64939;DHT22;51453;47.738;7.420;2023-12-20T03:33:28;5.70;99.90
64939;DHT22;51453;47.738;7.420;2023-12-20T03:35:53;5.70;99.90
64939;DHT22;51453;47.738;7.420;2023-12-20T03:38:20;5.60;99.90
64939;DHT22;51453;47.738;7.420;2023-12-20T03:40:45;5.60;99.90
64939;DHT22;51453;47.738;7.420;2023-12-20T03:43:11;5.60;99.90
64939;DHT22;51453;47.738;7.420;2023-12-20T03:45:37;5.60;99.90
64939;DHT22;51453;47.738;7.420;2023-12-20T03:48:02;5.60;99.90
64939;DHT22;51453;47.738;7.420;2023-12-20T03:50:28;5.60;99.90
64939;DHT22;51453;47.738;7.420;2023-12-20T03:52:54;5.60;99.90
64939;DHT22;51453;47.738;7.420;2023-12-20T03:55:20;5.60;99.90
64939;DHT22;51453;47.738;7.420;2023-12-20T03:57:45;5.60;99.90
64939;DHT22;51453;47.738;7.420;2023-12-20T04:00:11;5.60;99.90
64939;DHT22;51453;47.738;7.420;2023-12-20T04:02:41;5.60;99.90
64939;DHT22;51453;47.738;7.420;2023-12-20T04:05:08;5.60;99.90
64939;DHT22;51453;47.738;7.420;2023-12-20T04:07:34;5.60;99.90
64939;DHT22;51453;47.738;7.420;2023-12-20T04:10:00;5.60;99.90
64939;DHT22;51453;47.738;7.420;2023-12-20T04:12:27;5.60;99.90
64939;DHT22;51453;47.738;7.420;2023-12-20T04:14:53;5.70;99.90
64939;DHT22;51453;47.738;7.420;2023-12-20T04:17:20;5.70;99.90
64939;DHT22;51453;47.738;7.420;2023-12-20T04:19:51;5.70;99.90
64939;DHT22;51453;47.738;7.420;2023-12-20T04:22:18;5.70;99.90
64939;DHT22;51453;47.738;7.420;2023-12-20T04:24:44;5.70;99.90
64939;DHT22;51453;47.738;7.420;2023-12-20T04:27:10;5.80;99.90
64939;DHT22;51453;47.738;7.420;2023-12-20T04:29:35;5.80;99.90
64939;DHT22;51453;47.738;7.420;2023-12-20T04:32:01;5.80;99.90
64939;DHT22;51453;47.738;7.420;2023-12-20T04:34:27;5.90;99.90
64939;DHT22;51453;47.738;7.420;2023-12-20T04:36:53;5.90;99.90
64939;DHT22;51453;47.738;7.420;2023-12-20T04:39:19;5.90;99.90
64939;DHT22;51453;47.738;7.420;2023-12-20T04:41:44;5.90;99.90
64939;DHT22;51453;47.738;7.420;2023-12-20T04:44:10;5.90;99.90
64939;DHT22;51453;47.738;7.420;2023-12-20T04:46:35;5.90;99.90
64939;DHT22;51453;47.738;7.420;2023-12-20T04:49:01;5.90;99.90
64939;DHT22;51453;47.738;7.420;2023-12-20T04:51:27;6.00;99.90
64939;DHT22;51453;47.738;7.420;2023-12-20T04:53:53;6.00;99.90
64939;DHT22;51453;47.738;7.420;2023-12-20T04:56:18;6.00;99.90
64939;DHT22;51453;47.738;7.420;2023-12-20T04:58:44;5.90;99.90
64939;DHT22;51453;47.738;7.420;2023-12-20T05:01:10;6.00;99.90
64939;DHT22;51453;47.738;7.420;2023-12-20T05:03:36;6.00;99.90
64939;DHT22;51453;47.738;7.420;2023-12-20T05:06:01;6.00;99.90
64939;DHT22;51453;47.738;7.420;2023-12-20T05:08:27;6.10;99.90
64939;DHT22;51453;47.738;7.420;2023-12-20T05:10:56;6.00;99.90
64939;DHT22;51453;47.738;7.420;2023-12-20T05:13:22;6.10;99.90
64939;DHT22;51453;47.738;7.420;2023-12-20T05:15:47;6.10;99.90
64939;DHT22;51453;47.738;7.420;2023-12-20T05:18:13;6.20;99.90
64939;DHT22;51453;47.738;7.420;2023-12-20T05:20:39;6.20;99.90
64939;DHT22;51453;47.738;7.420;2023-12-20T05:23:05;6.20;99.90
64939;DHT22;51453;47.738;7.420;2023-12-20T05:25:31;6.20;99.90
64939;DHT22;51453;47.738;7.420;2023-12-20T05:27:57;6.20;99.90
64939;DHT22;51453;47.738;7.420;2023-12-20T05:30:23;6.20;99.90
64939;DHT22;51453;47.738;7.420;2023-12-20T05:32:48;6.20;99.90
64939;DHT22;51453;47.738;7.420;2023-12-20T05:35:14;6.20;99.90
64939;DHT22;51453;47.738;7.420;2023-12-20T05:37:41;6.20;99.90
64939;DHT22;51453;47.738;7.420;2023-12-20T05:40:07;6.20;99.90
64939;DHT22;51453;47.738;7.420;2023-12-20T05:42:36;6.10;99.90
64939;DHT22;51453;47.738;7.420;2023-12-20T05:45:01;6.10;99.90
64939;DHT22;51453;47.738;7.420;2023-12-20T05:47:27;6.10;99.90
64939;DHT22;51453;47.738;7.420;2023-12-20T05:49:53;6.10;99.90
64939;DHT22;51453;47.738;7.420;2023-12-20T05:52:18;6.10;99.90
64939;DHT22;51453;47.738;7.420;2023-12-20T05:54:44;6.10;99.90
64939;DHT22;51453;47.738;7.420;2023-12-20T05:57:10;6.10;99.90
64939;DHT22;51453;47.738;7.420;2023-12-20T05:59:36;6.10;99.90
64939;DHT22;51453;47.738;7.420;2023-12-20T06:02:03;6.10;99.90
64939;DHT22;51453;47.738;7.420;2023-12-20T06:04:30;6.10;99.90
64939;DHT22;51453;47.738;7.420;2023-12-20T06:06:57;6.10;99.90
64939;DHT22;51453;47.738;7.420;2023-12-20T06:09:22;6.10;99.90
64939;DHT22;51453;47.738;7.420;2023-12-20T06:11:48;6.10;99.90
64939;DHT22;51453;47.738;7.420;2023-12-20T06:14:14;6.10;99.90
64939;DHT22;51453;47.738;7.420;2023-12-20T06:16:39;6.10;99.90
64939;DHT22;51453;47.738;7.420;2023-12-20T06:19:05;6.10;99.90
64939;DHT22;51453;47.738;7.420;2023-12-20T06:21:31;6.10;99.90
64939;DHT22;51453;47.738;7.420;2023-12-20T06:23:59;6.10;99.90
64939;DHT22;51453;47.738;7.420;2023-12-20T06:26:25;6.00;99.90
64939;DHT22;51453;47.738;7.420;2023-12-20T06:28:50;6.00;99.90
64939;DHT22;51453;47.738;7.420;2023-12-20T06:31:16;6.00;99.90
64939;DHT22;51453;47.738;7.420;2023-12-20T06:33:43;6.10;99.90
64939;DHT22;51453;47.738;7.420;2023-12-20T06:36:12;6.10;99.90
64939;DHT22;51453;47.738;7.420;2023-12-20T06:38:39;6.10;99.90
64939;DHT22;51453;47.738;7.420;2023-12-20T06:41:05;6.10;99.90
64939;DHT22;51453;47.738;7.420;2023-12-20T06:43:31;6.00;99.90
64939;DHT22;51453;47.738;7.420;2023-12-20T06:45:58;6.00;99.90
64939;DHT22;51453;47.738;7.420;2023-12-20T06:48:23;6.00;99.90
64939;DHT22;51453;47.738;7.420;2023-12-20T06:50:49;5.90;99.90
64939;DHT22;51453;47.738;7.420;2023-12-20T06:53:15;5.90;99.90
64939;DHT22;51453;47.738;7.420;2023-12-20T06:55:40;5.80;99.90
64939;DHT22;51453;47.738;7.420;2023-12-20T06:58:06;5.80;99.90
64939;DHT22;51453;47.738;7.420;2023-12-20T07:00:32;5.80;99.90
64939;DHT22;51453;47.738;7.420;2023-12-20T07:02:58;5.80;99.90
64939;DHT22;51453;47.738;7.420;2023-12-20T07:05:24;5.70;99.90
64939;DHT22;51453;47.738;7.420;2023-12-20T07:07:50;5.70;99.90
64939;DHT22;51453;47.738;7.420;2023-12-20T07:10:15;5.70;99.90
64939;DHT22;51453;47.738;7.420;2023-12-20T07:12:41;5.60;99.90
64939;DHT22;51453;47.738;7.420;2023-12-20T07:15:07;5.60;99.90
64939;DHT22;51453;47.738;7.420;2023-12-20T07:17:33;5.60;99.90
64939;DHT22;51453;47.738;7.420;2023-12-20T07:19:59;5.60;99.90
64939;DHT22;51453;47.738;7.420;2023-12-20T07:22:29;5.60;99.90
64939;DHT22;51453;47.738;7.420;2023-12-20T07:24:57;5.60;99.90
64939;DHT22;51453;47.738;7.420;2023-12-20T07:27:23;5.70;99.90
64939;DHT22;51453;47.738;7.420;2023-12-20T07:29:48;5.70;99.90
64939;DHT22;51453;47.738;7.420;2023-12-20T07:32:14;5.70;99.90
64939;DHT22;51453;47.738;7.420;2023-12-20T07:34:39;5.70;99.90
64939;DHT22;51453;47.738;7.420;2023-12-20T07:37:05;5.80;99.90
64939;DHT22;51453;47.738;7.420;2023-12-20T07:39:31;5.80;99.90
64939;DHT22;51453;47.738;7.420;2023-12-20T07:41:56;5.80;99.90
64939;DHT22;51453;47.738;7.420;2023-12-20T07:44:22;5.80;99.90
64939;DHT22;51453;47.738;7.420;2023-12-20T07:46:47;5.90;99.90
64939;DHT22;51453;47.738;7.420;2023-12-20T07:49:14;5.80;99.90
64939;DHT22;51453;47.738;7.420;2023-12-20T07:51:39;5.90;99.90
64939;DHT22;51453;47.738;7.420;2023-12-20T07:54:05;5.90;99.90
64939;DHT22;51453;47.738;7.420;2023-12-20T07:56:30;5.90;99.90
64939;DHT22;51453;47.738;7.420;2023-12-20T07:58:56;5.90;99.90
64939;DHT22;51453;47.738;7.420;2023-12-20T08:01:22;5.90;99.90
64939;DHT22;51453;47.738;7.420;2023-12-20T08:03:49;5.90;99.90
64939;DHT22;51453;47.738;7.420;2023-12-20T08:06:14;5.80;99.90
64939;DHT22;51453;47.738;7.420;2023-12-20T08:08:42;5.80;99.90
64939;DHT22;51453;47.738;7.420;2023-12-20T08:11:08;5.70;99.90
64939;DHT22;51453;47.738;7.420;2023-12-20T08:13:33;5.70;99.90
64939;DHT22;51453;47.738;7.420;2023-12-20T08:15:59;5.60;99.90
64939;DHT22;51453;47.738;7.420;2023-12-20T08:18:25;5.60;99.90
64939;DHT22;51453;47.738;7.420;2023-12-20T08:20:50;5.50;99.90
64939;DHT22;51453;47.738;7.420;2023-12-20T08:23:19;5.50;99.90
64939;DHT22;51453;47.738;7.420;2023-12-20T08:25:46;5.50;99.90
64939;DHT22;51453;47.738;7.420;2023-12-20T08:28:12;5.50;99.90
64939;DHT22;51453;47.738;7.420;2023-12-20T08:30:38;5.50;99.90
64939;DHT22;51453;47.738;7.420;2023-12-20T08:33:04;5.50;99.90
64939;DHT22;51453;47.738;7.420;2023-12-20T08:35:30;5.50;99.90
64939;DHT22;51453;47.738;7.420;2023-12-20T08:37:56;5.50;99.90
64939;DHT22;51453;47.738;7.420;2023-12-20T08:40:21;5.50;99.90
64939;DHT22;51453;47.738;7.420;2023-12-20T08:42:47;5.50;99.90
64939;DHT22;51453;47.738;7.420;2023-12-20T08:45:12;5.50;99.90
64939;DHT22;51453;47.738;7.420;2023-12-20T08:47:38;5.50;99.90
64939;DHT22;51453;47.738;7.420;2023-12-20T08:50:04;5.50;99.90
64939;DHT22;51453;47.738;7.420;2023-12-20T08:52:30;5.60;99.90
64939;DHT22;51453;47.738;7.420;2023-12-20T08:54:56;5.60;99.90
64939;DHT22;51453;47.738;7.420;2023-12-20T08:57:21;5.70;99.90
64939;DHT22;51453;47.738;7.420;2023-12-20T08:59:51;5.80;99.90
64939;DHT22;51453;47.738;7.420;2023-12-20T09:02:17;5.80;99.90
64939;DHT22;51453;47.738;7.420;2023-12-20T09:04:43;5.90;99.90
64939;DHT22;51453;47.738;7.420;2023-12-20T09:07:25;5.90;99.90
64939;DHT22;51453;47.738;7.420;2023-12-20T09:09:52;5.90;99.90
64939;DHT22;51453;47.738;7.420;2023-12-20T09:12:21;5.80;99.90
64939;DHT22;51453;47.738;7.420;2023-12-20T09:14:47;5.80;99.90
64939;DHT22;51453;47.738;7.420;2023-12-20T09:17:14;5.90;99.90
64939;DHT22;51453;47.738;7.420;2023-12-20T09:19:40;6.10;99.90
64939;DHT22;51453;47.738;7.420;2023-12-20T09:22:06;6.30;99.90
64939;DHT22;51453;47.738;7.420;2023-12-20T09:24:31;6.50;99.90
64939;DHT22;51453;47.738;7.420;2023-12-20T09:26:57;6.60;99.90
64939;DHT22;51453;47.738;7.420;2023-12-20T09:29:23;6.80;99.90
64939;DHT22;51453;47.738;7.420;2023-12-20T09:31:48;6.90;99.90
64939;DHT22;51453;47.738;7.420;2023-12-20T09:34:15;7.00;99.90
64939;DHT22;51453;47.738;7.420;2023-12-20T09:36:42;7.00;99.90
64939;DHT22;51453;47.738;7.420;2023-12-20T09:39:17;7.20;99.90
64939;DHT22;51453;47.738;7.420;2023-12-20T09:42:04;7.20;99.90
64939;DHT22;51453;47.738;7.420;2023-12-20T09:44:31;7.40;99.90
64939;DHT22;51453;47.738;7.420;2023-12-20T09:46:57;7.50;99.90
64939;DHT22;51453;47.738;7.420;2023-12-20T09:49:23;7.60;99.90
64939;DHT22;51453;47.738;7.420;2023-12-20T09:51:51;7.60;99.90
64939;DHT22;51453;47.738;7.420;2023-12-20T09:54:18;7.70;99.90
64939;DHT22;51453;47.738;7.420;2023-12-20T09:56:44;7.70;99.90
64939;DHT22;51453;47.738;7.420;2023-12-20T09:59:10;7.50;99.90
64939;DHT22;51453;47.738;7.420;2023-12-20T10:01:36;7.20;99.90
64939;DHT22;51453;47.738;7.420;2023-12-20T10:04:06;7.10;99.90
64939;DHT22;51453;47.738;7.420;2023-12-20T10:06:35;7.10;99.90
64939;DHT22;51453;47.738;7.420;2023-12-20T10:09:01;7.00;99.90
64939;DHT22;51453;47.738;7.420;2023-12-20T10:11:27;7.00;99.90
64939;DHT22;51453;47.738;7.420;2023-12-20T10:13:59;6.90;99.90
64939;DHT22;51453;47.738;7.420;2023-12-20T10:16:28;6.90;99.90
64939;DHT22;51453;47.738;7.420;2023-12-20T10:18:54;6.90;99.90
64939;DHT22;51453;47.738;7.420;2023-12-20T10:21:21;6.80;99.90
64939;DHT22;51453;47.738;7.420;2023-12-20T10:23:48;6.90;99.90
64939;DHT22;51453;47.738;7.420;2023-12-20T10:26:21;6.80;99.90
64939;DHT22;51453;47.738;7.420;2023-12-20T10:28:55;6.90;99.90
64939;DHT22;51453;47.738;7.420;2023-12-20T10:31:31;6.90;99.90
64939;DHT22;51453;47.738;7.420;2023-12-20T10:33:58;6.90;99.90
64939;DHT22;51453;47.738;7.420;2023-12-20T10:36:26;6.90;99.90
64939;DHT22;51453;47.738;7.420;2023-12-20T10:38:53;6.90;99.90
64939;DHT22;51453;47.738;7.420;2023-12-20T10:41:26;6.90;99.90
64939;DHT22;51453;47.738;7.420;2023-12-20T10:43:55;6.90;99.90
64939;DHT22;51453;47.738;7.420;2023-12-20T10:46:21;6.90;99.90
64939;DHT22;51453;47.738;7.420;2023-12-20T10:48:48;6.90;99.90
64939;DHT22;51453;47.738;7.420;2023-12-20T10:51:17;7.00;99.90
64939;DHT22;51453;47.738;7.420;2023-12-20T10:53:44;7.10;99.90
64939;DHT22;51453;47.738;7.420;2023-12-20T10:56:13;7.10;99.90
64939;DHT22;51453;47.738;7.420;2023-12-20T10:58:42;7.10;99.90
64939;DHT22;51453;47.738;7.420;2023-12-20T11:01:09;7.10;99.90
64939;DHT22;51453;47.738;7.420;2023-12-20T11:03:36;7.20;99.90
64939;DHT22;51453;47.738;7.420;2023-12-20T11:06:14;7.20;99.90
64939;DHT22;51453;47.738;7.420;2023-12-20T11:12:15;7.50;99.90
64939;DHT22;51453;47.738;7.420;2023-12-20T11:14:46;7.80;99.90
64939;DHT22;51453;47.738;7.420;2023-12-20T11:17:12;7.90;99.90
64939;DHT22;51453;47.738;7.420;2023-12-20T11:22:31;8.20;99.90
64939;DHT22;51453;47.738;7.420;2023-12-20T11:25:10;8.20;99.90
64939;DHT22;51453;47.738;7.420;2023-12-20T11:27:41;8.10;99.90
64939;DHT22;51453;47.738;7.420;2023-12-20T11:30:07;8.10;99.90
64939;DHT22;51453;47.738;7.420;2023-12-20T11:32:35;7.80;99.90
64939;DHT22;51453;47.738;7.420;2023-12-20T11:35:17;7.70;99.90
64939;DHT22;51453;47.738;7.420;2023-12-20T11:37:45;7.60;99.90
64939;DHT22;51453;47.738;7.420;2023-12-20T11:40:16;7.40;99.90
64939;DHT22;51453;47.738;7.420;2023-12-20T11:42:44;7.30;99.90
64939;DHT22;51453;47.738;7.420;2023-12-20T11:45:13;7.10;99.90
64939;DHT22;51453;47.738;7.420;2023-12-20T11:47:46;7.00;99.90
64939;DHT22;51453;47.738;7.420;2023-12-20T11:50:12;6.90;99.90
64939;DHT22;51453;47.738;7.420;2023-12-20T11:52:38;6.80;99.90
64939;DHT22;51453;47.738;7.420;2023-12-20T11:55:04;6.80;99.90
64939;DHT22;51453;47.738;7.420;2023-12-20T11:57:33;6.90;99.90
64939;DHT22;51453;47.738;7.420;2023-12-20T11:59:59;6.90;99.90
64939;DHT22;51453;47.738;7.420;2023-12-20T12:02:25;6.90;99.90
64939;DHT22;51453;47.738;7.420;2023-12-20T12:04:51;6.80;99.90
64939;DHT22;51453;47.738;7.420;2023-12-20T12:07:17;6.70;99.90
64939;DHT22;51453;47.738;7.420;2023-12-20T12:09:43;6.60;99.90
64939;DHT22;51453;47.738;7.420;2023-12-20T12:12:10;6.50;99.90
64939;DHT22;51453;47.738;7.420;2023-12-20T12:14:35;6.50;99.90
64939;DHT22;51453;47.738;7.420;2023-12-20T12:17:03;6.40;99.90
64939;DHT22;51453;47.738;7.420;2023-12-20T12:19:29;6.40;99.90
64939;DHT22;51453;47.738;7.420;2023-12-20T12:22:10;6.40;99.90
64939;DHT22;51453;47.738;7.420;2023-12-20T12:24:46;6.50;99.90
64939;DHT22;51453;47.738;7.420;2023-12-20T12:27:13;6.70;99.90
64939;DHT22;51453;47.738;7.420;2023-12-20T12:29:39;6.80;99.90
64939;DHT22;51453;47.738;7.420;2023-12-20T12:32:06;7.00;99.90
64939;DHT22;51453;47.738;7.420;2023-12-20T12:34:33;7.30;99.90
64939;DHT22;51453;47.738;7.420;2023-12-20T12:36:59;7.60;99.90
64939;DHT22;51453;47.738;7.420;2023-12-20T12:39:25;7.80;99.90
64939;DHT22;51453;47.738;7.420;2023-12-20T12:41:51;7.90;99.90
64939;DHT22;51453;47.738;7.420;2023-12-20T12:44:17;8.00;99.90
64939;DHT22;51453;47.738;7.420;2023-12-20T12:46:46;8.20;99.90
64939;DHT22;51453;47.738;7.420;2023-12-20T12:49:12;8.30;99.90
64939;DHT22;51453;47.738;7.420;2023-12-20T12:51:38;8.30;99.90
64939;DHT22;51453;47.738;7.420;2023-12-20T12:54:04;8.40;99.90
64939;DHT22;51453;47.738;7.420;2023-12-20T12:56:30;8.30;99.90
64939;DHT22;51453;47.738;7.420;2023-12-20T12:58:56;8.40;99.90
64939;DHT22;51453;47.738;7.420;2023-12-20T13:01:22;8.30;99.90
64939;DHT22;51453;47.738;7.420;2023-12-20T13:03:47;8.30;99.90
64939;DHT22;51453;47.738;7.420;2023-12-20T13:06:13;8.40;99.90
64939;DHT22;51453;47.738;7.420;2023-12-20T13:08:39;8.50;99.90
64939;DHT22;51453;47.738;7.420;2023-12-20T13:11:04;8.60;99.90
64939;DHT22;51453;47.738;7.420;2023-12-20T13:13:31;8.60;99.90
64939;DHT22;51453;47.738;7.420;2023-12-20T13:15:57;8.20;99.90
64939;DHT22;51453;47.738;7.420;2023-12-20T13:18:23;8.10;99.90
64939;DHT22;51453;47.738;7.420;2023-12-20T13:20:49;7.90;99.90
64939;DHT22;51453;47.738;7.420;2023-12-20T13:23:15;7.70;99.90
64939;DHT22;51453;47.738;7.420;2023-12-20T13:25:44;7.60;99.90
64939;DHT22;51453;47.738;7.420;2023-12-20T13:28:13;7.40;99.90
64939;DHT22;51453;47.738;7.420;2023-12-20T13:30:39;7.30;99.90
64939;DHT22;51453;47.738;7.420;2023-12-20T13:33:05;7.20;99.90
64939;DHT22;51453;47.738;7.420;2023-12-20T13:35:32;7.10;99.90
64939;DHT22;51453;47.738;7.420;2023-12-20T13:37:58;7.00;99.90
64939;DHT22;51453;47.738;7.420;2023-12-20T13:40:24;7.00;99.90
64939;DHT22;51453;47.738;7.420;2023-12-20T13:42:49;7.00;99.90
64939;DHT22;51453;47.738;7.420;2023-12-20T13:45:16;7.00;99.90
64939;DHT22;51453;47.738;7.420;2023-12-20T13:47:41;6.90;99.90
64939;DHT22;51453;47.738;7.420;2023-12-20T13:50:07;6.90;99.90
64939;DHT22;51453;47.738;7.420;2023-12-20T13:52:33;6.80;99.90
64939;DHT22;51453;47.738;7.420;2023-12-20T13:54:59;6.60;99.90
64939;DHT22;51453;47.738;7.420;2023-12-20T13:57:24;6.40;99.90
64939;DHT22;51453;47.738;7.420;2023-12-20T13:59:50;6.30;99.90
64939;DHT22;51453;47.738;7.420;2023-12-20T14:02:16;6.20;99.90
64939;DHT22;51453;47.738;7.420;2023-12-20T14:04:44;6.20;99.90
64939;DHT22;51453;47.738;7.420;2023-12-20T14:07:10;6.10;99.90
64939;DHT22;51453;47.738;7.420;2023-12-20T14:09:36;6.20;99.90
64939;DHT22;51453;47.738;7.420;2023-12-20T14:12:05;6.20;99.90
64939;DHT22;51453;47.738;7.420;2023-12-20T14:14:30;6.30;99.90
64939;DHT22;51453;47.738;7.420;2023-12-20T14:16:56;6.40;99.90
64939;DHT22;51453;47.738;7.420;2023-12-20T14:19:23;6.30;99.90
64939;DHT22;51453;47.738;7.420;2023-12-20T14:21:49;6.30;99.90
64939;DHT22;51453;47.738;7.420;2023-12-20T14:24:14;6.40;99.90
64939;DHT22;51453;47.738;7.420;2023-12-20T14:26:41;6.40;99.90
64939;DHT22;51453;47.738;7.420;2023-12-20T14:29:07;6.40;99.90
64939;DHT22;51453;47.738;7.420;2023-12-20T14:31:33;6.40;99.90
64939;DHT22;51453;47.738;7.420;2023-12-20T14:33:59;6.30;99.90
64939;DHT22;51453;47.738;7.420;2023-12-20T14:36:26;6.10;99.90
64939;DHT22;51453;47.738;7.420;2023-12-20T14:38:52;6.00;99.90
64939;DHT22;51453;47.738;7.420;2023-12-20T14:41:17;5.80;99.90
64939;DHT22;51453;47.738;7.420;2023-12-20T14:43:44;5.70;99.90
64939;DHT22;51453;47.738;7.420;2023-12-20T14:46:10;5.70;99.90
64939;DHT22;51453;47.738;7.420;2023-12-20T14:48:35;5.70;99.90
64939;DHT22;51453;47.738;7.420;2023-12-20T14:51:01;5.70;99.90
64939;DHT22;51453;47.738;7.420;2023-12-20T14:53:27;5.90;99.90
64939;DHT22;51453;47.738;7.420;2023-12-20T14:55:52;6.10;99.90
64939;DHT22;51453;47.738;7.420;2023-12-20T14:58:18;6.10;99.90
64939;DHT22;51453;47.738;7.420;2023-12-20T15:00:44;6.20;99.90
64939;DHT22;51453;47.738;7.420;2023-12-20T15:03:10;6.30;99.90
64939;DHT22;51453;47.738;7.420;2023-12-20T15:05:36;6.30;99.90
64939;DHT22;51453;47.738;7.420;2023-12-20T15:08:02;6.20;99.90
64939;DHT22;51453;47.738;7.420;2023-12-20T15:10:27;6.10;99.90
64939;DHT22;51453;47.738;7.420;2023-12-20T15:12:53;6.00;99.90
64939;DHT22;51453;47.738;7.420;2023-12-20T15:15:20;5.90;99.90
64939;DHT22;51453;47.738;7.420;2023-12-20T15:17:46;5.70;99.90
64939;DHT22;51453;47.738;7.420;2023-12-20T15:20:11;5.60;99.90
64939;DHT22;51453;47.738;7.420;2023-12-20T15:22:37;5.50;99.90
64939;DHT22;51453;47.738;7.420;2023-12-20T15:25:05;5.40;99.90
64939;DHT22;51453;47.738;7.420;2023-12-20T15:27:33;5.40;99.90
64939;DHT22;51453;47.738;7.420;2023-12-20T15:30:01;5.30;99.90
64939;DHT22;51453;47.738;7.420;2023-12-20T15:32:26;5.10;99.90
64939;DHT22;51453;47.738;7.420;2023-12-20T15:34:52;5.00;99.90
64939;DHT22;51453;47.738;7.420;2023-12-20T15:37:18;4.80;99.90
64939;DHT22;51453;47.738;7.420;2023-12-20T15:39:44;4.80;99.90
64939;DHT22;51453;47.738;7.420;2023-12-20T15:42:10;4.70;99.90
64939;DHT22;51453;47.738;7.420;2023-12-20T15:44:35;4.80;99.90
64939;DHT22;51453;47.738;7.420;2023-12-20T15:47:01;4.70;99.90